• Join FlightAware (Why Join?)
  • Login
  • US Flag 
02:37AM EST


 

Airport Tracker/Info


-or-


 

Live Flight TrackerFlight Track Log ✈ XOJ793 ✈ 11-Jul-2014 ✈ KVRB - KVNY

Flight Track Log - Related Links

Times and Time Zones

All times are in EDT time to prevent confusion due to time zone crossing. See the XOJ793 flight status page for this flight to view local times or setup timezone preferences in your user account.

Time Position Orientation Groundspeed Altitude Reporting Facility
EDT Latitude Longitude Course Direction KTS MPH feet Rate Location/Type
08:55AM 27.6497 -80.4067 270° West 138 159 500  Level Miami Center
08:56AM 27.6719 -80.3633 60° Northeast 208 239 2,600 2,340 Climbing Miami Center
08:57AM 27.7328 -80.3650 359° North 228 262 5,300 2,400 Climbing Miami Center
08:58AM 27.7322 -80.4450 270° West 252 290 7,600 1,680 Climbing Miami Center
08:59AM 27.7200 -80.5269 260° West 272 313 8,800 1,080 Climbing Miami Center
09:00AM 27.5667 -81.1512 270° West  Level FlightAware Approximate
09:00AM 27.7067 -80.6194 261° West 284 327 9,900  Level Miami Center
09:01AM 27.6922 -80.7172 261° West 310 357 11,300 1,500 Climbing Miami Center
09:02AM 27.6764 -80.8258 261° West 334 384 13,000 1,740 Climbing Miami Center
09:03AM 27.6600 -80.9397 261° West 351 404 14,900 1,740 Climbing Miami Center
09:04AM 27.6428 -81.0550 260° West 359 413 16,600 1,440 Climbing Miami Center
09:05AM 27.6261 -81.1622 260° West 360 414 17,900 1,140 Climbing Miami Center
09:06AM 27.6097 -81.2722 260° West 369 425 19,000 1,200 Climbing Miami Center
09:07AM 27.5889 -81.4086 260° West 385 443 20,500 1,500 Climbing Miami Center
09:08AM 27.5689 -81.5386 260° West 397 457 22,100 1,440 Climbing Miami Center
09:09AM 27.5486 -81.6683 260° West 401 461 23,500 1,260 Climbing Miami Center
09:10AM 27.5297 -81.7911 260° West 411 473 24,800 1,260 Climbing Miami Center
09:11AM 27.5081 -81.9264 260° West 418 481 26,200 1,200 Climbing Miami Center
09:12AM 27.4867 -82.0650 260° West 424 488 27,300 1,080 Climbing Miami Center
09:13AM 27.4644 -82.2064 260° West 439 505 28,500 1,140 Climbing Miami Center
09:14AM 27.4433 -82.3397 260° West 445 512 29,700 1,020 Climbing Miami Center
09:15AM 27.4558 -82.4831 276° West 450 518 30,700 1,140 Climbing Miami Center
09:16AM 27.5094 -82.6217 294° West 463 533 32,100 1,260 Climbing Miami Center
09:17AM 27.5617 -82.7622 293° West 463 533 33,400 1,020 Climbing Miami Center
09:18AM 27.6108 -82.8900 293° West 469 540 34,300 1,080 Climbing Miami Center
09:19AM 27.6633 -83.0281 293° West 475 547 35,700 1,380 Climbing Miami Center
09:20AM 27.7075 -83.1689 290° West 476 548 37,200 1,140 Climbing Miami Center
09:21AM 27.7386 -83.3158 283° West 477 549 38,100 1,200 Climbing Miami Center
09:22AM 27.7489 -83.4675 274° West 472 543 39,700 1,560 Climbing Miami Center
09:23AM 27.7636 -83.6442 275° West 476 548 41,300 1,260 Climbing Miami Center
09:24AM 27.7744 -83.7908 275° West 473 544 42,300 780 Climbing Miami Center
09:25AM 27.7872 -83.9358 276° West 468 539 43,000 300 Climbing Miami Center
09:26AM 27.7994 -84.0836 275° West 469 540 43,000  Level Miami Center
09:28AM 27.8100 -84.2367 274° West 485 558 43,000  Level Miami Center
09:29AM 27.8228 -84.3917 275° West 490 564 43,000  Level Miami Center
09:30AM 27.8336 -84.5478 275° West 498 573 43,000  Level Miami Center
09:30AM 27.8453 -84.6833 276° West 502 578 43,000  Level Jacksonville Center
09:31AM 27.8517 -84.8264 273° West 516 594 43,000  Level Jacksonville Center
09:32AM 27.8639 -84.9864 275° West 516 594 43,000  Level Jacksonville Center
09:33AM 27.8758 -85.1392 275° West 516 594 43,000  Level Jacksonville Center
09:34AM 27.8981 -85.2947 279° West 516 594 43,000  Level Jacksonville Center
09:35AM 27.9428 -85.4578 287° West 501 577 43,000  Level Jacksonville Center
09:36AM 27.9878 -85.6117 288° West 508 585 43,000  Level Jacksonville Center
09:37AM 28.0344 -85.7633 289° West 502 578 43,000  Level Jacksonville Center
09:38AM 28.0792 -85.9106 289° West 502 578 43,000  Level Jacksonville Center
09:39AM 28.1236 -86.0600 289° West 510 587 43,000  Level Jacksonville Center
09:40AM 28.1678 -86.2075 289° West 509 586 43,000  Level Jacksonville Center
09:41AM 28.2139 -86.3550 290° West 509 586 43,100 300 Climbing Jacksonville Center
09:42AM 28.2578 -86.5047 288° West 509 586 43,700 540 Climbing Jacksonville Center
09:43AM 28.2975 -86.6475 288° West 496 571 44,200 540 Climbing Jacksonville Center
09:44AM 28.3411 -86.7956 289° West 491 565 44,800 360 Climbing Jacksonville Center
09:45AM 28.3806 -86.9386 287° West 486 559 45,000 60 Climbing Jacksonville Center
09:46AM 28.4258 -87.0842 290° West 486 559 45,000  Level Jacksonville Center
09:47AM 28.4492 -87.1603 289° West 483 556 45,000  Level Houston Center
09:48AM 28.4919 -87.3081 288° West 493 567 45,000  Level Houston Center
09:49AM 28.5336 -87.4572 288° West 493 567 45,000  Level Houston Center
09:50AM 28.5775 -87.6067 289° West 498 573 45,000  Level Houston Center
09:51AM 28.6192 -87.7558 288° West 495 570 45,000  Level Houston Center
09:52AM 28.6625 -87.9056 288° West 496 571 45,000  Level Houston Center
09:53AM 28.7114 -88.0803 288° West 497 572 45,000  Level Houston Center
09:54AM 28.7503 -88.2172 288° West 498 573 45,000 -60 Level Houston Center
09:55AM 28.7967 -88.3994 286° West 498 573 44,900  Descending Houston Center
09:56AM 28.8278 -88.5550 283° West 499 574 45,000  Climbing Houston Center
09:57AM 28.8592 -88.7094 283° West 500 575 45,000  Level Houston Center
09:58AM 28.8906 -88.8647 283° West 501 577 45,000  Level Houston Center
09:59AM 28.9203 -89.0189 282° West 501 577 45,000  Level Houston Center
10:00AM 28.9506 -89.1719 283° West 499 574 45,000  Level Houston Center
10:01AM 28.9864 -89.3581 282° West 499 574 45,000  Level Houston Center
10:02AM 29.0172 -89.5136 283° West 499 574 45,000  Level Houston Center
10:03AM 29.0475 -89.6711 282° West 507 583 45,000  Level Houston Center
10:04AM 29.0772 -89.8261 282° West 500 575 45,000  Level Houston Center
10:05AM 29.1072 -89.9822 282° West 501 577 45,000 -60 Level Houston Center
10:06AM 29.1367 -90.1381 282° West 501 577 44,900  Descending Houston Center
10:08AM 29.1731 -90.3269 282° West 503 579 45,000  Climbing Houston Center
10:09AM 29.2022 -90.4833 282° West 504 580 45,000  Level Houston Center
10:10AM 29.2317 -90.6414 282° West 504 580 45,000  Level Houston Center
10:11AM 29.2608 -90.7986 282° West 504 580 45,000  Level Houston Center
10:12AM 29.2900 -90.9567 282° West 509 586 45,000  Level Houston Center
10:13AM 29.3186 -91.1139 282° West 507 583 45,000  Level Houston Center
10:14AM 29.3525 -91.3017 282° West 504 580 45,000  Level Houston Center
10:15AM 29.3806 -91.4586 282° West 503 579 45,000  Level Houston Center
10:16AM 29.4097 -91.6156 282° West 503 579 45,000  Level Houston Center
10:17AM 29.4389 -91.7853 281° West 503 579 45,000 -60 Level Houston Center
10:18AM 29.4661 -91.9422 281° West 503 579 44,900  Descending Houston Center
10:19AM 29.4950 -92.0997 282° West 503 579 45,000  Climbing Houston Center
10:20AM 29.5219 -92.2586 281° West 504 580 45,000  Level Houston Center
10:21AM 29.5486 -92.4169 281° West 505 581 45,000 -60 Level Houston Center
10:22AM 29.5814 -92.6072 281° West 506 582 44,900  Descending Houston Center
10:23AM 29.6075 -92.7653 281° West 505 581 45,000  Climbing Houston Center
10:24AM 29.6350 -92.9244 281° West 506 582 45,000  Level Houston Center
10:25AM 29.6614 -93.0831 281° West 505 581 45,000  Level Houston Center
10:26AM 29.6875 -93.2422 281° West 505 581 45,000  Level Houston Center
10:27AM 29.7131 -93.4025 280° West 506 582 45,000  Level Houston Center
10:28AM 29.7392 -93.5628 281° West 506 582 45,000  Level Houston Center
10:29AM 29.7714 -93.7575 281° West 512 589 45,000  Level Houston Center
10:30AM 29.7978 -93.9181 281° West 510 587 45,000  Level Houston Center
10:31AM 29.8239 -94.0789 281° West 510 587 45,000  Level Houston Center
10:32AM 29.8494 -94.2447 280° West 510 587 45,000  Level Houston Center
10:33AM 29.8739 -94.4056 280° West 510 587 45,000  Level Houston Center
10:34AM 29.8992 -94.5653 280° West 510 587 45,000  Level Houston Center
10:35AM 29.9233 -94.7256 280° West 510 587 45,000  Level Houston Center
10:37AM 29.9522 -94.9164 280° West 510 587 45,000  Level Houston Center
10:38AM 29.9769 -95.0767 280° West 510 587 45,000  Level Houston Center
10:39AM 30.0011 -95.2367 280° West 511 588 45,000  Level Houston Center
10:40AM 30.0242 -95.3958 280° West 511 588 45,000  Level Houston Center
10:41AM 30.0525 -95.5892 280° West 511 588 45,000  Level Houston Center
10:42AM 30.0753 -95.7492 279° West 511 588 45,000  Level Houston Center
10:43AM 30.0992 -95.9097 280° West 511 588 45,000  Level Houston Center
10:44AM 30.1228 -96.0756 279° West 512 589 45,000  Level Houston Center
10:45AM 30.1481 -96.2517 279° West 512 589 45,000  Level Houston Center
10:46AM 30.1700 -96.4150 279° West 513 590 45,000  Level Houston Center
10:47AM 30.1964 -96.5767 281° West 513 590 45,000  Level Houston Center
10:48AM 30.2297 -96.7369 284° West 513 590 45,000  Level Houston Center
10:49AM 30.2700 -96.9308 284° West 513 590 45,000  Level Houston Center
10:50AM 30.3019 -97.0928 283° West 513 590 45,000  Level Houston Center
10:51AM 30.3347 -97.2542 283° West 513 590 45,000  Level Houston Center
10:52AM 30.3675 -97.4169 283° West 513 590 45,000  Level Houston Center
10:53AM 30.4000 -97.5797 283° West 513 590 45,000  Level Houston Center
10:54AM 30.4325 -97.7408 283° West 514 592 45,000  Level Houston Center
10:55AM 30.4644 -97.9031 283° West 514 592 45,000  Level Houston Center
10:56AM 30.5028 -98.0983 283° West 514 592 45,000  Level Houston Center
10:57AM 30.5342 -98.2594 283° West 514 592 45,000  Level Houston Center
10:58AM 30.5653 -98.4211 283° West 514 592 45,000  Level Houston Center
10:59AM 30.5964 -98.5828 283° West 514 592 45,000  Level Houston Center
11:00AM 30.6264 -98.7444 282° West 513 590 45,000  Level Houston Center
11:01AM 30.6575 -98.9075 283° West 514 592 45,000  Level Houston Center
11:02AM 30.6944 -99.1014 283° West 514 592 45,000  Level Houston Center
11:03AM 30.7208 -99.2428 282° West 514 592 45,000  Level Houston Center
11:05AM 30.7567 -99.4378 282° West 515 593 45,000  Level Houston Center
11:06AM 30.7864 -99.5997 282° West 515 593 45,000  Level Houston Center
11:07AM 30.8153 -99.7625 282° West 515 593 45,000  Level Houston Center
11:08AM 30.8447 -99.9256 282° West 516 594 45,000  Level Houston Center
11:09AM 30.8728 -100.0875 281° West 516 594 45,000  Level Houston Center
11:10AM 30.9083 -100.2831 282° West 516 594 45,000  Level Houston Center
11:11AM 30.9375 -100.4453 282° West 516 594 45,000  Level Houston Center
11:12AM 30.9656 -100.6092 281° West 516 594 45,000  Level Houston Center
11:13AM 30.9933 -100.7731 281° West 518 596 45,000  Level Houston Center
11:14AM 31.0222 -100.9381 282° West 520 598 45,000  Level Houston Center
11:15AM 31.0558 -101.1353 281° West 519 597 45,000  Level Houston Center
11:16AM 31.0839 -101.3006 281° West 519 597 45,000  Level Houston Center
11:17AM 31.1086 -101.4511 281° West 519 597 45,000  Level Houston Center
11:18AM 31.1403 -101.6489 281° West 519 597 45,000  Level Houston Center
11:19AM 31.1683 -101.8136 281° West 519 597 45,000  Level Houston Center
11:20AM 31.1886 -101.9414 281° West 520 598 45,000  Level Albuquerque Center
11:21AM 31.2156 -102.1142 280° West 529 609 45,000  Level Albuquerque Center
11:22AM 31.2414 -102.2808 280° West 522 601 45,000  Level Albuquerque Center
11:23AM 31.2683 -102.4461 281° West 521 600 45,000  Level Albuquerque Center
11:24AM 31.2961 -102.6278 280° West 521 600 45,000  Level Albuquerque Center
11:25AM 31.3219 -102.7922 280° West 520 598 45,000  Level Albuquerque Center
11:26AM 31.3478 -102.9583 280° West 519 597 45,000  Level Albuquerque Center
11:27AM 31.3786 -103.1564 280° West 519 597 45,000  Level Albuquerque Center
11:28AM 31.4033 -103.3222 280° West 519 597 45,000  Level Albuquerque Center
11:29AM 31.4281 -103.4867 280° West 518 596 45,000  Level Albuquerque Center
11:30AM 31.4508 -103.6514 279° West 518 596 45,000  Level Albuquerque Center
11:31AM 31.4767 -103.8231 280° West 517 595 45,000  Level Albuquerque Center
11:32AM 31.5008 -103.9864 280° West 516 594 45,000  Level Albuquerque Center
11:33AM 31.5253 -104.1522 280° West 516 594 45,000  Level Albuquerque Center
11:34AM 31.5544 -104.3506 280° West 517 595 45,000  Level Albuquerque Center
11:35AM 31.5783 -104.5167 280° West 517 595 45,000  Level Albuquerque Center
11:36AM 31.6022 -104.6817 280° West 517 595 45,000  Level Albuquerque Center
11:37AM 31.6244 -104.8472 279° West 518 596 45,000  Level Albuquerque Center
11:38AM 31.6486 -105.0158 280° West 520 598 45,000  Level Albuquerque Center
11:39AM 31.6761 -105.2175 279° West 522 601 45,000  Level Albuquerque Center
11:41AM 31.6986 -105.3825 279° West 522 601 45,000  Level Albuquerque Center
11:42AM 31.7208 -105.5497 279° West 522 601 45,000  Level Albuquerque Center
11:43AM 31.7422 -105.7178 279° West 522 601 45,000  Level Albuquerque Center
11:44AM 31.7644 -105.8847 279° West 522 601 45,000  Level Albuquerque Center
11:45AM 31.7911 -106.0864 279° West 522 601 45,000  Level Albuquerque Center
11:46AM 31.8139 -106.2558 279° West 524 603 45,000 -60 Level Albuquerque Center
11:47AM 31.8619 -106.4192 289° West 532 612 44,900  Descending Albuquerque Center
11:48AM 31.9208 -106.5781 294° West 524 603 45,000  Climbing Albuquerque Center
11:49AM 31.9761 -106.7333 293° West 517 595 45,000  Level Albuquerque Center
11:50AM 32.0311 -106.8900 293° West 516 594 45,000  Level Albuquerque Center
11:51AM 32.0956 -107.0789 292° West 516 594 45,000  Level Albuquerque Center
11:52AM 32.1492 -107.2369 292° West 516 594 45,000  Level Albuquerque Center
11:53AM 32.2036 -107.3994 292° West 514 592 45,000  Level Albuquerque Center
11:54AM 32.2564 -107.5511 292° West 514 592 45,000  Level Albuquerque Center
11:55AM 32.3136 -107.7053 294° West 512 589 45,000  Level Albuquerque Center
11:56AM 32.3756 -107.8592 296° West 512 589 45,000  Level Albuquerque Center
11:57AM 32.4347 -108.0128 295° West 512 589 45,000  Level Albuquerque Center
11:58AM 32.4978 -108.1669 296° West 512 589 45,000  Level Albuquerque Center
11:59AM 32.5611 -108.3539 292° West 512 589 45,000  Level Albuquerque Center
12:00PM 32.6094 -108.5119 290° West 512 589 45,000  Level Albuquerque Center
12:01PM 32.6581 -108.6692 290° West 511 588 45,000  Level Albuquerque Center
12:02PM 32.7061 -108.8239 290° West 508 585 45,000  Level Albuquerque Center
12:03PM 32.7569 -108.9797 291° West 508 585 45,000  Level Albuquerque Center
12:04PM 32.8044 -109.1456 289° West 504 580 45,000  Level Albuquerque Center
12:05PM 32.8542 -109.3022 291° West 502 578 45,000  Level Albuquerque Center
12:06PM 32.9125 -109.4900 290° West 501 577 45,000  Level Albuquerque Center
12:07PM 32.9606 -109.6472 290° West 504 580 45,000  Level Albuquerque Center
12:08PM 33.0078 -109.8008 290° West 500 575 45,000  Level Albuquerque Center
12:10PM 33.0544 -109.9558 290° West 499 574 45,000  Level Albuquerque Center
12:11PM 33.1022 -110.1103 290° West 499 574 45,000  Level Albuquerque Center
12:12PM 33.1461 -110.2661 289° West 498 573 45,000  Level Albuquerque Center
12:13PM 33.2017 -110.4528 290° West 498 573 45,000  Level Albuquerque Center
12:14PM 33.2500 -110.6069 291° West 498 573 45,000  Level Albuquerque Center
12:15PM 33.2978 -110.7583 291° West 498 573 45,000  Level Albuquerque Center
12:16PM 33.3447 -110.9122 290° West 497 572 45,000  Level Albuquerque Center
12:17PM 33.3922 -111.0650 290° West 494 568 45,000  Level Albuquerque Center
12:18PM 33.4406 -111.2208 290° West 495 570 45,000  Level Albuquerque Center
12:19PM 33.4978 -111.4083 290° West 497 572 45,000  Level Albuquerque Center
12:20PM 33.5447 -111.5661 290° West 498 573 45,000  Level Albuquerque Center
12:21PM 33.5925 -111.7253 290° West 501 577 45,000  Level Albuquerque Center
12:22PM 33.6408 -111.8853 290° West 502 578 45,000  Level Albuquerque Center
12:23PM 33.6881 -112.0444 290° West 502 578 45,000  Level Albuquerque Center
12:24PM 33.7361 -112.2036 290° West 502 578 45,000  Level Albuquerque Center
12:25PM 33.7831 -112.3631 290° West 502 578 45,000  Level Albuquerque Center
12:26PM 33.8392 -112.5547 289° West 503 579 45,000  Level Albuquerque Center
12:27PM 33.8847 -112.7136 289° West 503 579 45,000  Level Albuquerque Center
12:28PM 33.9314 -112.8717 290° West 502 578 45,000  Level Albuquerque Center
12:29PM 33.9775 -113.0292 289° West 502 578 45,000  Level Albuquerque Center
12:30PM 34.0231 -113.1872 289° West 501 577 45,000  Level Albuquerque Center
12:31PM 34.0681 -113.3436 289° West 500 575 45,000  Level Albuquerque Center
12:32PM 34.1217 -113.5325 289° West 497 572 45,000  Level Albuquerque Center
12:33PM 34.1644 -113.6867 289° West 496 571 45,000  Level Albuquerque Center
12:34PM 34.2072 -113.8464 288° West 496 571 45,000  Level Albuquerque Center
12:35PM 34.2522 -114.0014 289° West 495 570 45,000 -240 Level Albuquerque Center
12:36PM 34.2919 -114.1575 287° West 490 564 44,600 -1,080 Descending Albuquerque Center
12:37PM 34.3347 -114.3500 285° West 489 563 42,800 -1,620 Descending Albuquerque Center
12:39PM 34.3703 -114.5106 285° West 489 563 41,300 -1,140 Descending Albuquerque Center
12:40PM 34.4256 -114.7508 286° West 495 570 40,000 -540 Descending Los Angeles Center
12:41PM 34.4625 -114.9153 285° West 503 579 40,000  Level Los Angeles Center
12:42PM 34.5092 -115.0769 289° West 509 586 40,000  Level Los Angeles Center
12:43PM 34.5594 -115.2386 291° West 513 590 40,000 -240 Level Los Angeles Center
12:44PM 34.6097 -115.3978 291° West 512 589 39,600 -960 Descending Los Angeles Center
12:45PM 34.6658 -115.5725 291° West 499 574 38,100 -1,800 Descending Los Angeles Center
12:46PM 34.7156 -115.7253 292° West 489 563 36,000 -3,240 Descending Los Angeles Center
12:47PM 34.7653 -115.8844 291° West 493 567 31,500 -3,360 Descending Los Angeles Center
12:48PM 34.7850 -116.0433 279° West 485 558 29,100 -2,280 Descending Los Angeles Center
12:49PM 34.7900 -116.2242 272° West 466 536 26,800 -2,160 Descending Los Angeles Center
12:50PM 34.7936 -116.3919 272° West 464 534 24,600 -1,740 Descending Los Angeles Center
12:51PM 34.7900 -116.5464 268° West 464 534 23,300 -1,140 Descending Los Angeles Center
12:52PM 34.7733 -116.6961 262° West 455 524 22,300 -1,020 Descending Los Angeles Center
12:53PM 34.7589 -116.8464 263° West 454 522 21,200 -1,140 Descending Los Angeles Center
12:55PM 34.7414 -117.0239 263° West 458 527 20,000 -600 Descending Los Angeles Center
12:56PM 34.7256 -117.1744 263° West 458 527 20,000  Level Los Angeles Center
12:57PM 34.7094 -117.3275 263° West 440 506 20,000 -120 Level Los Angeles Center
12:58PM 34.6944 -117.4722 263° West 437 503 19,800 -1,200 Descending Los Angeles Center
12:59PM 34.6800 -117.6164 263° West 434 499 17,600 -2,220 Descending Los Angeles Center
01:00PM 34.6642 -117.7639 263° West 437 503 15,200 -1,800 Descending Los Angeles Center
01:01PM 34.6481 -117.9133 263° West 392 451 14,000 -1,200 Descending Los Angeles Center
01:02PM 34.6358 -118.0258 263° West 347 399 12,800 -1,200 Descending Los Angeles Center
01:03PM 34.6178 -118.1217 257° West 300 345 11,600 -1,260 Descending Los Angeles Center
01:04PM 34.5967 -118.2158 255° West 294 338 10,200 -1,440 Descending Los Angeles Center
01:05PM 34.5767 -118.3081 255° West 288 331 8,700 -1,080 Descending Los Angeles Center
01:06PM 34.5539 -118.4111 255° West 264 304 8,000 -360 Descending Los Angeles Center
01:07PM 34.5358 -118.4783 252° West 219 252 8,000 -720 Level Los Angeles Center
01:08PM 34.4836 -118.5061 204° Southwest 212 244 6,500 -1,500 Descending Los Angeles Center
01:09PM 34.4233 -118.5139 186° South 219 252 5,000 -900 Descending Los Angeles Center
01:10PM 34.3694 -118.5039 171° South 194 223 4,700 -720 Descending Los Angeles Center
01:11PM 34.3231 -118.5017 178° South 141 162 3,600 -1,020 Descending Los Angeles Center
01:12PM 34.2842 -118.4956 173° South 140 161 2,600 -960 Descending Los Angeles Center
01:13PM 34.2467 -118.4944 179° South 139 160 1,700 -780 Descending Los Angeles Center
01:14PM 34.2122 -118.4917 176° South 138 159 1,000 -720 Descending Los Angeles Center
01:16PM 34.2098 -118.4900 180° South  Level Estimated
01:23PM 34.2098 -118.4900 180° South  Level Estimated